createdAt,value
2022-07-30T00:01:45.481Z,7.23
2022-07-30T00:03:48.279Z,6.10
2022-07-30T00:05:51.173Z,6.23
2022-07-30T00:07:53.955Z,5.80
2022-07-30T00:09:56.725Z,7.03
2022-07-30T00:11:59.581Z,4.37
2022-07-30T00:14:04.656Z,7.13
2022-07-30T00:16:08.846Z,7.07
2022-07-30T00:18:11.976Z,5.83
2022-07-30T00:20:16.074Z,6.60
2022-07-30T00:22:19.019Z,6.13
2022-07-30T00:24:21.943Z,4.97
2022-07-30T00:26:24.741Z,7.10
2022-07-30T00:28:27.546Z,6.10
2022-07-30T00:30:30.326Z,6.20
2022-07-30T00:32:34.420Z,7.27
2022-07-30T00:34:37.157Z,5.87
2022-07-30T00:36:40.231Z,10.50
2022-07-30T00:38:42.998Z,6.90
2022-07-30T00:40:48.608Z,7.87
2022-07-30T00:42:51.375Z,5.80
2022-07-30T00:44:54.541Z,9.20
2022-07-30T00:46:57.922Z,5.90
2022-07-30T00:49:02.628Z,7.63
2022-07-30T00:51:05.574Z,6.73
2022-07-30T00:53:09.487Z,7.53
2022-07-30T00:55:14.502Z,6.60
2022-07-30T00:57:17.261Z,10.97
2022-07-30T00:59:20.113Z,7.37
2022-07-30T01:01:22.895Z,8.77
2022-07-30T01:03:25.713Z,8.77
2022-07-30T01:05:29.796Z,7.20
2022-07-30T01:07:32.624Z,6.73
2022-07-30T01:09:35.345Z,8.93
2022-07-30T01:11:39.898Z,7.57
2022-07-30T01:13:42.811Z,5.27
2022-07-30T01:15:45.778Z,5.40
2022-07-30T01:17:52.858Z,8.37
2022-07-30T01:20:00.485Z,6.00
2022-07-30T01:22:13.439Z,5.53
2022-07-30T01:24:26.702Z,7.83
2022-07-30T01:26:31.378Z,5.67
2022-07-30T01:28:37.520Z,6.90
2022-07-30T01:30:44.142Z,8.33
2022-07-30T01:32:48.639Z,9.60
2022-07-30T01:34:53.288Z,8.17
2022-07-30T01:36:58.112Z,7.23
2022-07-30T01:39:02.008Z,7.33
2022-07-30T01:41:07.017Z,7.47
2022-07-30T01:43:12.044Z,7.53
2022-07-30T01:45:15.519Z,6.83
2022-07-30T01:47:20.694Z,5.67
2022-07-30T01:49:25.085Z,8.00
2022-07-30T01:51:37.533Z,9.40
2022-07-30T01:53:42.322Z,5.20
2022-07-30T01:55:46.132Z,8.00
2022-07-30T01:57:50.070Z,5.57
2022-07-30T02:00:00.002Z,7.27
2022-07-30T02:02:03.069Z,9.87
2022-07-30T02:04:06.018Z,6.67
2022-07-30T02:06:14.441Z,7.73
2022-07-30T02:08:23.113Z,6.83
2022-07-30T02:10:32.389Z,10.13
2022-07-30T02:12:36.527Z,10.23
2022-07-30T02:14:45.492Z,7.87
2022-07-30T02:16:54.246Z,7.33
2022-07-30T02:19:07.544Z,7.23
2022-07-30T02:21:13.298Z,8.13
2022-07-30T02:23:18.085Z,8.07
2022-07-30T02:25:22.483Z,8.60
2022-07-30T02:27:29.327Z,6.93
2022-07-30T02:29:35.557Z,11.03
2022-07-30T02:31:41.283Z,8.27
2022-07-30T02:33:48.624Z,8.90
2022-07-30T02:35:53.150Z,7.93
2022-07-30T02:37:56.051Z,5.90
2022-07-30T02:39:59.704Z,8.90
2022-07-30T02:42:04.589Z,5.83
2022-07-30T02:44:07.764Z,7.33
2022-07-30T02:46:12.882Z,8.40
2022-07-30T02:48:34.406Z,7.10
2022-07-30T02:50:40.914Z,6.17
2022-07-30T02:52:44.714Z,6.70
2022-07-30T02:54:50.195Z,6.40
2022-07-30T02:56:53.985Z,8.87
2022-07-30T02:58:58.566Z,7.73
2022-07-30T03:01:03.231Z,6.93
2022-07-30T03:03:07.197Z,6.47
2022-07-30T03:05:10.913Z,7.77
2022-07-30T03:07:16.047Z,7.83
2022-07-30T03:09:19.436Z,6.60
2022-07-30T03:11:23.224Z,5.53
2022-07-30T03:13:26.548Z,7.80
2022-07-30T03:15:30.576Z,6.17
2022-07-30T03:17:45.329Z,7.57
2022-07-30T03:19:50.372Z,5.23
2022-07-30T03:21:54.127Z,4.93
2022-07-30T03:24:03.232Z,6.20
2022-07-30T03:26:08.553Z,6.70
2022-07-30T03:28:12.787Z,7.67
2022-07-30T03:30:15.706Z,6.27
2022-07-30T03:32:18.814Z,7.43
2022-07-30T03:34:23.524Z,7.67
2022-07-30T03:36:27.533Z,6.20
2022-07-30T03:38:31.418Z,8.07
2022-07-30T03:40:35.763Z,10.60
2022-07-30T03:42:39.778Z,7.63
2022-07-30T03:44:45.724Z,7.60
2022-07-30T03:46:50.717Z,6.67
2022-07-30T03:48:54.737Z,8.80
2022-07-30T03:50:58.508Z,9.60
2022-07-30T03:53:02.189Z,12.03
2022-07-30T03:55:07.805Z,5.47
2022-07-30T03:57:12.002Z,7.53
2022-07-30T03:59:20.556Z,8.73
2022-07-30T04:01:25.910Z,7.80
2022-07-30T04:03:31.224Z,5.77
2022-07-30T04:05:41.483Z,7.77
2022-07-30T04:07:45.059Z,8.70
2022-07-30T04:09:48.325Z,6.50
2022-07-30T04:11:51.275Z,5.33
2022-07-30T04:13:55.367Z,7.40
2022-07-30T04:16:39.166Z,8.50
2022-07-30T04:18:37.008Z,8.87
2022-07-30T04:20:44.391Z,5.43
2022-07-30T04:22:48.453Z,7.83
2022-07-30T04:24:52.507Z,7.90
2022-07-30T04:26:55.836Z,6.53
2022-07-30T04:29:00.846Z,5.80
2022-07-30T04:31:03.954Z,6.40
2022-07-30T04:33:06.888Z,6.70
2022-07-30T04:35:10.103Z,7.00
2022-07-30T04:37:12.852Z,8.13
2022-07-30T04:39:15.900Z,6.83
2022-07-30T04:41:18.716Z,7.77
2022-07-30T04:43:21.436Z,7.53
2022-07-30T04:45:25.738Z,6.90
2022-07-30T04:47:28.566Z,7.00
2022-07-30T04:49:32.125Z,7.43
2022-07-30T04:51:37.727Z,6.67
2022-07-30T04:53:41.214Z,6.37
2022-07-30T04:55:47.780Z,9.03
2022-07-30T04:57:53.277Z,6.67
2022-07-30T04:59:56.111Z,5.80
2022-07-30T05:02:01.154Z,5.70
2022-07-30T05:04:05.677Z,6.90
2022-07-30T05:06:09.314Z,8.07
2022-07-30T05:08:14.084Z,8.50
2022-07-30T05:10:19.090Z,9.93
2022-07-30T05:12:21.902Z,7.27
2022-07-30T05:14:25.465Z,8.53
2022-07-30T05:16:29.648Z,8.60
2022-07-30T05:18:33.854Z,8.50
2022-07-30T05:20:36.830Z,8.07
2022-07-30T05:22:39.611Z,6.80
2022-07-30T05:24:45.669Z,10.20
2022-07-30T05:26:48.656Z,7.93
2022-07-30T05:28:55.282Z,7.23
2022-07-30T05:30:59.632Z,7.37
2022-07-30T05:33:15.515Z,6.87
2022-07-30T05:35:20.308Z,9.37
2022-07-30T05:37:23.057Z,13.20
2022-07-30T05:39:25.846Z,6.93
2022-07-30T05:41:31.640Z,14.23
2022-07-30T05:43:35.899Z,9.67
2022-07-30T05:45:38.653Z,10.07
2022-07-30T05:47:41.385Z,8.80
2022-07-30T05:49:44.147Z,9.77
2022-07-30T05:51:51.564Z,9.90
2022-07-30T05:53:54.309Z,9.40
2022-07-30T05:55:57.130Z,10.90
2022-07-30T05:57:59.884Z,9.33
2022-07-30T06:00:03.086Z,10.20
2022-07-30T06:02:06.808Z,10.73
2022-07-30T06:04:09.706Z,13.77
2022-07-30T06:06:13.007Z,9.70
2022-07-30T06:08:17.083Z,16.67
2022-07-30T06:10:19.837Z,12.40
2022-07-30T06:12:22.558Z,10.40
2022-07-30T06:14:25.337Z,13.07
2022-07-30T06:16:28.248Z,12.47
2022-07-30T06:18:31.207Z,9.63
2022-07-30T06:20:34.016Z,11.47
2022-07-30T06:22:36.756Z,12.77
2022-07-30T06:24:40.858Z,13.60
2022-07-30T06:26:44.324Z,10.83
2022-07-30T06:28:47.116Z,12.37
2022-07-30T06:30:49.929Z,10.23
2022-07-30T06:32:52.715Z,13.77
2022-07-30T06:35:03.944Z,11.30
2022-07-30T06:37:07.422Z,11.60
2022-07-30T06:39:10.186Z,8.67
2022-07-30T06:41:15.778Z,10.87
2022-07-30T06:43:19.551Z,11.00
2022-07-30T06:45:22.643Z,8.33
2022-07-30T06:47:29.129Z,11.23
2022-07-30T06:49:33.003Z,10.40
2022-07-30T06:51:35.876Z,7.67
2022-07-30T06:53:42.402Z,10.13
2022-07-30T06:55:46.003Z,9.77
2022-07-30T06:57:50.353Z,13.00
2022-07-30T06:59:56.581Z,11.37
2022-07-30T07:02:00.486Z,11.53
2022-07-30T07:04:03.817Z,8.17
2022-07-30T07:06:06.902Z,10.10
2022-07-30T07:08:10.042Z,7.03
2022-07-30T07:10:13.132Z,8.37
2022-07-30T07:12:16.178Z,7.30
2022-07-30T07:14:20.425Z,9.10
2022-07-30T07:16:25.601Z,11.70
2022-07-30T07:18:31.183Z,13.60
2022-07-30T07:20:34.479Z,7.07
2022-07-30T07:22:37.576Z,9.57
2022-07-30T07:24:40.436Z,10.17
2022-07-30T07:26:43.361Z,7.23
2022-07-30T07:28:46.545Z,9.50
2022-07-30T07:30:50.982Z,6.63
2022-07-30T07:32:53.899Z,7.33
2022-07-30T07:34:57.948Z,9.57
2022-07-30T07:37:01.037Z,6.57
2022-07-30T07:39:09.649Z,7.87
2022-07-30T07:41:15.814Z,7.70
2022-07-30T07:43:18.762Z,8.83
2022-07-30T07:45:21.881Z,6.90
2022-07-30T07:47:26.251Z,7.00
2022-07-30T07:49:32.027Z,8.77
2022-07-30T07:51:48.398Z,7.30
2022-07-30T07:54:18.636Z,8.80
2022-07-30T07:56:14.588Z,6.80
2022-07-30T07:58:25.542Z,8.27
2022-07-30T08:00:30.162Z,6.57
2022-07-30T08:02:34.469Z,7.83
2022-07-30T08:04:37.773Z,5.97
2022-07-30T08:06:40.683Z,5.87
2022-07-30T08:08:46.285Z,11.40
2022-07-30T08:10:49.215Z,7.10
2022-07-30T08:12:52.162Z,6.90
2022-07-30T08:14:54.998Z,7.73
2022-07-30T08:16:58.069Z,6.17
2022-07-30T08:19:02.629Z,9.37
2022-07-30T08:21:05.743Z,6.37
2022-07-30T08:23:08.794Z,6.77
2022-07-30T08:25:11.839Z,6.77
2022-07-30T08:27:26.274Z,4.80
2022-07-30T08:29:30.111Z,4.97
2022-07-30T08:31:33.320Z,6.20
2022-07-30T08:33:36.381Z,8.90
2022-07-30T08:35:41.676Z,6.27
2022-07-30T08:37:57.906Z,7.00
2022-07-30T08:40:00.779Z,4.57
2022-07-30T08:42:05.218Z,4.90
2022-07-30T08:44:11.811Z,6.40
2022-07-30T08:46:18.800Z,5.97
2022-07-30T08:48:22.582Z,6.17
2022-07-30T08:50:25.842Z,7.07
2022-07-30T08:52:30.463Z,5.60
2022-07-30T08:54:33.932Z,6.57
2022-07-30T08:56:36.897Z,6.37
2022-07-30T08:58:39.786Z,5.03
2022-07-30T09:00:42.711Z,7.73
2022-07-30T09:02:45.822Z,8.03
2022-07-30T09:04:48.629Z,5.77
2022-07-30T09:06:51.384Z,5.70
2022-07-30T09:08:55.587Z,5.57
2022-07-30T09:10:58.424Z,9.80
2022-07-30T09:13:01.201Z,6.60
2022-07-30T09:15:07.169Z,7.47
2022-07-30T09:17:09.957Z,5.43
2022-07-30T09:19:14.994Z,4.37
2022-07-30T09:21:20.853Z,6.10
2022-07-30T09:23:23.955Z,5.67
2022-07-30T09:25:39.703Z,5.83
2022-07-30T09:27:47.111Z,5.57
2022-07-30T09:29:59.169Z,5.17
2022-07-30T09:32:05.143Z,5.23
2022-07-30T09:34:24.947Z,8.03
2022-07-30T09:36:32.931Z,5.93
2022-07-30T09:38:45.806Z,6.07
2022-07-30T09:40:57.546Z,5.50
2022-07-30T09:43:08.999Z,7.07
2022-07-30T09:45:13.940Z,4.40
2022-07-30T09:47:35.088Z,5.30
2022-07-30T09:49:37.888Z,5.20
2022-07-30T09:51:54.482Z,4.37
2022-07-30T09:54:00.231Z,3.40
2022-07-30T09:56:25.036Z,4.87
2022-07-30T09:58:40.035Z,5.40
2022-07-30T10:00:48.563Z,3.33
2022-07-30T10:02:52.140Z,4.07
2022-07-30T10:04:55.149Z,6.43
2022-07-30T10:06:59.321Z,5.37
2022-07-30T10:09:02.331Z,4.97
2022-07-30T10:11:23.657Z,4.63
2022-07-30T10:13:29.561Z,5.43
2022-07-30T10:15:43.283Z,4.83
2022-07-30T10:17:47.252Z,6.67
2022-07-30T10:19:50.636Z,3.43
2022-07-30T10:21:57.073Z,6.03
2022-07-30T10:24:09.950Z,4.90
2022-07-30T10:26:13.562Z,8.07
2022-07-30T10:28:22.036Z,4.73
2022-07-30T10:30:28.098Z,3.53
2022-07-30T10:32:32.989Z,5.40
2022-07-30T10:34:36.176Z,4.70
2022-07-30T10:36:42.425Z,5.00
2022-07-30T10:38:46.264Z,4.22
2022-07-30T10:41:01.590Z,4.47
2022-07-30T10:43:36.578Z,3.70
2022-07-30T10:45:51.509Z,6.57
2022-07-30T10:47:55.886Z,6.07
2022-07-30T10:50:12.032Z,5.65
2022-07-30T10:52:15.086Z,4.72
2022-07-30T10:54:39.214Z,4.53
2022-07-30T10:56:42.450Z,3.25
2022-07-30T10:59:03.028Z,5.80
2022-07-30T11:01:08.864Z,3.72
2022-07-30T11:03:40.734Z,4.65
2022-07-30T11:05:49.539Z,4.03
2022-07-30T11:07:52.361Z,5.43
2022-07-30T11:10:05.106Z,5.32
2022-07-30T11:12:11.184Z,4.07
2022-07-30T11:14:20.344Z,4.25
2022-07-30T11:16:45.769Z,3.63
2022-07-30T11:21:33.997Z,6.05
2022-07-30T11:23:39.476Z,4.38
2022-07-30T11:25:50.364Z,5.13
2022-07-30T11:27:55.394Z,6.05
2022-07-30T11:29:58.464Z,4.28
2022-07-30T11:32:33.460Z,3.05
2022-07-30T11:34:36.404Z,4.63
2022-07-30T11:37:19.265Z,5.38
2022-07-30T11:39:33.322Z,2.50
2022-07-30T11:41:41.799Z,2.58
2022-07-30T11:43:44.949Z,3.53
2022-07-30T11:45:48.846Z,4.70
2022-07-30T11:47:55.070Z,4.05
2022-07-30T11:49:58.652Z,2.92
2022-07-30T11:52:01.999Z,3.88
2022-07-30T11:54:06.410Z,3.15
2022-07-30T11:56:10.421Z,3.75
2022-07-30T11:58:28.810Z,2.72
2022-07-30T12:00:36.903Z,3.13
2022-07-30T12:02:40.321Z,2.42
2022-07-30T12:04:45.971Z,3.97
2022-07-30T12:06:49.630Z,4.63
2022-07-30T12:08:58.491Z,3.90
2022-07-30T12:11:03.172Z,3.78
2022-07-30T12:13:10.489Z,3.25
2022-07-30T12:15:29.804Z,7.28
2022-07-30T12:17:42.538Z,3.13
2022-07-30T12:19:48.804Z,4.32
2022-07-30T12:21:53.543Z,2.97
2022-07-30T12:23:58.238Z,3.90
2022-07-30T12:26:01.025Z,3.38
2022-07-30T12:28:03.941Z,3.80
2022-07-30T12:30:08.954Z,3.55
2022-07-30T12:32:12.084Z,3.22
2022-07-30T12:34:21.659Z,3.38
2022-07-30T12:36:31.711Z,2.70
2022-07-30T12:38:45.124Z,2.83
2022-07-30T12:40:56.056Z,4.75
2022-07-30T12:42:58.852Z,2.92
2022-07-30T12:45:01.656Z,3.33
2022-07-30T12:47:05.902Z,4.82
2022-07-30T12:49:16.672Z,2.65
2022-07-30T12:51:25.872Z,2.55
2022-07-30T12:53:31.780Z,4.38
2022-07-30T12:55:36.694Z,4.57
2022-07-30T12:57:56.654Z,2.42
2022-07-30T13:00:03.996Z,3.05
2022-07-30T13:02:06.857Z,2.90
2022-07-30T13:04:10.498Z,2.92
2022-07-30T13:06:18.749Z,2.70
2022-07-30T13:08:22.528Z,3.45
2022-07-30T13:10:31.129Z,4.20
2022-07-30T13:12:34.483Z,2.97
2022-07-30T13:14:37.302Z,2.58
2022-07-30T13:16:44.077Z,2.95
2022-07-30T13:18:47.095Z,3.00
2022-07-30T13:20:49.937Z,2.97
2022-07-30T13:22:52.647Z,2.90
2022-07-30T13:24:55.360Z,4.22
2022-07-30T13:26:59.460Z,4.57
2022-07-30T13:29:02.324Z,2.90
2022-07-30T13:31:07.505Z,2.70
2022-07-30T13:33:10.554Z,2.45
2022-07-30T13:35:13.326Z,5.03
2022-07-30T13:37:16.079Z,2.78
2022-07-30T13:39:18.849Z,2.60
2022-07-30T13:41:21.770Z,2.92
2022-07-30T13:43:26.041Z,3.58
2022-07-30T13:45:28.951Z,2.45
2022-07-30T13:47:31.648Z,2.80
2022-07-30T13:49:35.336Z,3.97
2022-07-30T13:51:38.431Z,5.50
2022-07-30T13:53:41.784Z,2.72
2022-07-30T13:55:46.513Z,2.22
2022-07-30T13:57:49.280Z,2.60
2022-07-30T13:59:53.385Z,3.40
2022-07-30T14:01:56.852Z,2.58
2022-07-30T14:04:00.138Z,1.70
2022-07-30T14:06:10.037Z,1.50
2022-07-30T14:08:14.194Z,2.80
2022-07-30T14:10:17.706Z,1.95
2022-07-30T14:12:20.487Z,1.90
2022-07-30T14:14:23.458Z,2.22
2022-07-30T14:18:50.247Z,2.08
2022-07-30T14:20:53.706Z,1.75
2022-07-30T14:22:56.795Z,1.80
2022-07-30T14:25:00.369Z,2.67
2022-07-30T14:27:03.492Z,2.22
2022-07-30T14:29:06.819Z,2.45
2022-07-30T14:31:09.592Z,2.75
2022-07-30T14:33:13.851Z,3.63
2022-07-30T14:35:16.799Z,2.78
2022-07-30T14:37:19.717Z,1.67
2022-07-30T14:39:22.472Z,2.25
2022-07-30T14:41:25.443Z,2.35
2022-07-30T14:43:28.219Z,2.70
2022-07-30T14:45:30.952Z,2.90
2022-07-30T14:47:33.701Z,2.10
2022-07-30T14:49:37.784Z,2.40
2022-07-30T14:51:40.506Z,2.78
2022-07-30T14:53:43.292Z,3.00
2022-07-30T14:55:50.096Z,2.22
2022-07-30T14:57:52.816Z,4.20
2022-07-30T14:59:55.576Z,3.38
2022-07-30T15:01:58.418Z,4.82
2022-07-30T15:04:01.257Z,2.95
2022-07-30T15:06:05.817Z,2.60
2022-07-30T15:08:08.727Z,4.43
2022-07-30T15:10:11.575Z,2.55
2022-07-30T15:12:26.514Z,2.35
2022-07-30T15:14:30.199Z,4.20
2022-07-30T15:16:33.708Z,3.92
2022-07-30T15:18:36.562Z,2.28
2022-07-30T15:20:39.331Z,3.30
2022-07-30T15:22:43.402Z,4.22
2022-07-30T15:24:46.193Z,3.83
2022-07-30T15:26:48.899Z,2.67
2022-07-30T15:28:51.618Z,3.63
2022-07-30T15:30:55.583Z,3.72
2022-07-30T15:32:58.403Z,2.45
2022-07-30T15:35:01.175Z,3.33
2022-07-30T15:37:05.602Z,3.83
2022-07-30T15:39:09.829Z,3.83
2022-07-30T15:41:14.015Z,5.90
2022-07-30T15:43:17.116Z,2.70
2022-07-30T15:45:20.057Z,3.13
2022-07-30T15:47:22.994Z,3.55
2022-07-30T15:49:25.760Z,4.88
2022-07-30T15:51:28.640Z,3.20
2022-07-30T15:53:31.897Z,3.55
2022-07-30T15:55:47.195Z,2.75
2022-07-30T15:57:50.488Z,3.00
2022-07-30T15:59:53.331Z,3.67
2022-07-30T16:01:56.034Z,2.85
2022-07-30T16:03:58.873Z,3.17
2022-07-30T16:06:01.757Z,2.90
2022-07-30T16:08:04.576Z,2.25
2022-07-30T16:10:07.910Z,3.40
2022-07-30T16:12:12.059Z,2.78
2022-07-30T16:14:16.251Z,4.85
2022-07-30T16:16:19.291Z,3.08
2022-07-30T16:18:22.050Z,5.78
2022-07-30T16:20:24.772Z,3.60
2022-07-30T16:22:27.514Z,3.97
2022-07-30T16:24:30.264Z,3.58
2022-07-30T16:26:33.257Z,7.72
2022-07-30T16:28:37.378Z,4.65
2022-07-30T16:30:50.386Z,2.75
2022-07-30T16:32:56.162Z,4.53
2022-07-30T16:34:59.383Z,4.03
2022-07-30T16:37:03.853Z,3.45
2022-07-30T16:39:07.223Z,5.25
2022-07-30T16:41:13.477Z,4.03
2022-07-30T16:43:20.135Z,5.40
2022-07-30T16:45:24.506Z,3.47
2022-07-30T16:47:27.387Z,3.60
2022-07-30T16:49:36.659Z,2.83
2022-07-30T16:51:39.456Z,2.42
2022-07-30T16:53:42.371Z,4.78
2022-07-30T16:55:47.592Z,2.22
2022-07-30T16:57:50.447Z,2.90
2022-07-30T16:59:53.296Z,2.28
2022-07-30T17:01:57.347Z,2.75
2022-07-30T17:04:00.152Z,2.42
2022-07-30T17:06:02.908Z,2.75
2022-07-30T17:08:06.423Z,3.47
2022-07-30T17:10:12.369Z,2.60
2022-07-30T17:12:15.587Z,3.05
2022-07-30T17:14:18.356Z,2.80
2022-07-30T17:16:21.420Z,2.83
2022-07-30T17:18:25.551Z,3.08
2022-07-30T17:20:28.622Z,3.15
2022-07-30T17:22:32.330Z,2.65
2022-07-30T17:24:35.250Z,2.47
2022-07-30T17:26:39.638Z,3.55
2022-07-30T17:28:42.586Z,4.18
2022-07-30T17:30:45.473Z,2.53
2022-07-30T17:32:48.570Z,5.40
2022-07-30T17:34:52.885Z,3.78
2022-07-30T17:36:55.784Z,4.05
2022-07-30T17:38:58.582Z,4.07
2022-07-30T17:41:01.419Z,3.70
2022-07-30T17:43:04.897Z,2.70
2022-07-30T17:45:09.195Z,4.50
2022-07-30T17:47:15.057Z,4.85
2022-07-30T17:49:24.799Z,3.88
2022-07-30T17:51:29.147Z,2.92
2022-07-30T17:53:31.996Z,4.95
2022-07-30T17:55:37.826Z,4.50
2022-07-30T17:57:40.887Z,5.00
2022-07-30T17:59:43.703Z,5.20
2022-07-30T18:01:46.614Z,3.58
2022-07-30T18:03:49.389Z,3.72
2022-07-30T18:05:54.954Z,3.00
2022-07-30T18:07:59.082Z,4.07
2022-07-30T18:10:01.957Z,4.57
2022-07-30T18:12:06.109Z,4.47
2022-07-30T18:14:09.277Z,4.17
2022-07-30T18:16:12.628Z,3.83
2022-07-30T18:18:15.687Z,4.13
2022-07-30T18:20:18.737Z,5.43
2022-07-30T18:22:29.312Z,3.85
2022-07-30T18:24:34.196Z,3.53
2022-07-30T18:26:43.689Z,3.00
2022-07-30T18:28:47.430Z,3.17
2022-07-30T18:30:50.442Z,3.40
2022-07-30T18:32:53.257Z,3.77
2022-07-30T18:34:56.315Z,3.23
2022-07-30T18:36:59.233Z,3.23
2022-07-30T18:39:02.106Z,4.67
2022-07-30T18:41:06.490Z,3.07
2022-07-30T18:43:09.273Z,5.43
2022-07-30T18:45:14.116Z,4.13
2022-07-30T18:47:18.324Z,3.70
2022-07-30T18:49:36.065Z,3.83
2022-07-30T18:51:40.135Z,3.73
2022-07-30T18:53:43.142Z,3.13
2022-07-30T18:55:46.337Z,4.22
2022-07-30T18:57:52.156Z,3.50
2022-07-30T18:59:55.520Z,4.50
2022-07-30T19:01:58.661Z,2.73
2022-07-30T19:04:01.445Z,2.67
2022-07-30T19:06:04.440Z,4.00
2022-07-30T19:08:08.335Z,4.00
2022-07-30T19:10:11.849Z,3.27
2022-07-30T19:12:14.704Z,2.87
2022-07-30T19:14:18.998Z,2.40
2022-07-30T19:16:21.857Z,4.67
2022-07-30T19:18:25.086Z,3.33
2022-07-30T19:20:28.217Z,2.70
2022-07-30T19:22:31.055Z,3.20
2022-07-30T19:24:33.886Z,3.00
2022-07-30T19:26:38.905Z,2.93
2022-07-30T19:28:41.777Z,4.00
2022-07-30T19:30:46.148Z,2.57
2022-07-30T19:32:48.999Z,2.50
2022-07-30T19:34:53.779Z,4.10
2022-07-30T19:36:56.568Z,2.87
2022-07-30T19:39:06.767Z,3.03
2022-07-30T19:41:10.281Z,5.40
2022-07-30T19:43:13.723Z,2.73
2022-07-30T19:45:16.599Z,5.03
2022-07-30T19:47:26.052Z,4.33
2022-07-30T19:49:29.591Z,4.93
2022-07-30T19:52:10.605Z,2.67
2022-07-30T19:53:55.682Z,2.67
2022-07-30T19:56:01.617Z,4.10
2022-07-30T19:58:16.212Z,3.80
2022-07-30T20:00:24.560Z,2.63
2022-07-30T20:02:35.377Z,4.03
2022-07-30T20:04:38.277Z,3.30
2022-07-30T20:06:45.955Z,5.83
2022-07-30T20:08:49.641Z,3.13
2022-07-30T20:10:52.724Z,3.33
2022-07-30T20:12:55.621Z,2.60
2022-07-30T20:14:59.940Z,4.37
2022-07-30T20:17:02.892Z,3.80
2022-07-30T20:19:07.922Z,5.03
2022-07-30T20:21:14.853Z,3.23
2022-07-30T20:23:18.572Z,3.63
2022-07-30T20:25:21.736Z,4.43
2022-07-30T20:27:36.094Z,3.60
2022-07-30T20:29:40.942Z,2.80
2022-07-30T20:31:44.641Z,3.10
2022-07-30T20:33:50.256Z,3.47
2022-07-30T20:35:55.057Z,2.50
2022-07-30T20:37:57.873Z,5.00
2022-07-30T20:40:00.669Z,2.80
2022-07-30T20:42:11.752Z,2.83
2022-07-30T20:44:15.169Z,5.50
2022-07-30T20:46:26.555Z,2.90
2022-07-30T20:48:34.676Z,3.67
2022-07-30T20:50:38.948Z,3.33
2022-07-30T20:52:46.696Z,4.30
2022-07-30T20:54:50.905Z,3.13
2022-07-30T20:56:54.099Z,2.67
2022-07-30T20:58:57.422Z,3.77
2022-07-30T21:01:00.537Z,4.13
2022-07-30T21:03:13.666Z,3.27
2022-07-30T21:05:19.795Z,3.43
2022-07-30T21:07:22.989Z,3.90
2022-07-30T21:09:52.091Z,4.20
2022-07-30T21:11:55.542Z,4.23
2022-07-30T21:13:58.517Z,3.40
2022-07-30T21:16:01.332Z,3.43
2022-07-30T21:18:05.659Z,3.00
2022-07-30T21:20:09.690Z,2.90
2022-07-30T21:22:12.552Z,4.53
2022-07-30T21:24:18.849Z,3.97
2022-07-30T21:26:23.560Z,3.93
2022-07-30T21:28:27.492Z,4.20
2022-07-30T21:30:31.029Z,3.30
2022-07-30T21:32:33.807Z,4.03
2022-07-30T21:37:00.751Z,5.63
2022-07-30T21:39:03.978Z,4.90
2022-07-30T21:41:10.917Z,3.10
2022-07-30T21:43:15.165Z,4.37
2022-07-30T21:45:37.811Z,3.60
2022-07-30T21:47:47.545Z,3.70
2022-07-30T21:49:50.902Z,3.77
2022-07-30T21:51:55.948Z,2.77
2022-07-30T21:53:58.784Z,4.33
2022-07-30T21:56:01.659Z,4.77
2022-07-30T21:58:04.719Z,2.87
2022-07-30T22:00:15.425Z,5.07
2022-07-30T22:02:19.029Z,3.43
2022-07-30T22:04:22.607Z,4.20
2022-07-30T22:06:25.551Z,4.80
2022-07-30T22:08:28.530Z,5.53
2022-07-30T22:10:35.363Z,3.43
2022-07-30T22:12:38.844Z,4.93
2022-07-30T22:14:41.686Z,3.43
2022-07-30T22:16:46.304Z,3.50
2022-07-30T22:18:49.436Z,3.67
2022-07-30T22:20:52.956Z,3.90
2022-07-30T22:22:56.146Z,3.40
2022-07-30T22:24:59.953Z,4.10
2022-07-30T22:27:10.769Z,3.03
2022-07-30T22:29:17.362Z,4.20
2022-07-30T22:31:21.592Z,4.40
2022-07-30T22:33:26.283Z,6.57
2022-07-30T22:35:32.194Z,4.17
2022-07-30T22:37:37.128Z,3.20
2022-07-30T22:39:50.246Z,4.97
2022-07-30T22:41:54.408Z,7.00
2022-07-30T22:43:57.484Z,3.83
2022-07-30T22:46:01.220Z,4.33
2022-07-30T22:48:10.060Z,4.27
2022-07-30T22:50:17.500Z,4.27
2022-07-30T22:52:27.408Z,4.37
2022-07-30T22:54:31.764Z,3.50
2022-07-30T22:56:34.495Z,4.87
2022-07-30T22:58:37.254Z,3.20
2022-07-30T23:00:40.698Z,3.87
2022-07-30T23:02:44.414Z,5.33
2022-07-30T23:04:48.365Z,5.90
2022-07-30T23:06:53.832Z,3.83
2022-07-30T23:08:57.162Z,3.80
2022-07-30T23:11:00.924Z,6.23
2022-07-30T23:12:27.492Z,3.40
2022-07-30T23:13:04.090Z,3.33
2022-07-30T23:15:09.010Z,3.17
2022-07-30T23:17:12.570Z,3.63
2022-07-30T23:19:22.100Z,5.47
2022-07-30T23:21:25.305Z,3.43
2022-07-30T23:23:30.996Z,4.37
2022-07-30T23:25:38.961Z,3.43
2022-07-30T23:27:42.616Z,6.40
2022-07-30T23:29:45.392Z,3.97
2022-07-30T23:31:48.174Z,3.90
2022-07-30T23:33:50.985Z,4.27
2022-07-30T23:35:53.789Z,3.60
2022-07-30T23:37:57.330Z,4.40
2022-07-30T23:40:01.439Z,4.67
2022-07-30T23:42:04.258Z,4.13
2022-07-30T23:44:07.056Z,5.37
2022-07-30T23:46:09.793Z,4.00
2022-07-30T23:48:14.975Z,4.97
2022-07-30T23:50:18.669Z,4.53
2022-07-30T23:52:21.392Z,3.43
2022-07-30T23:54:24.167Z,4.53
2022-07-30T23:56:28.200Z,3.93
2022-07-30T23:58:31.243Z,6.57
